sensor_id;sensor_type;location;lat;lon;timestamp;P1;durP1;ratioP1;P2;durP2;ratioP2
16460;SDS011;8341;42.048;24.650;2022-08-19T00:00:08;5.93;;;5.32;;
16460;SDS011;8341;42.048;24.650;2022-08-19T00:02:39;7.10;;;5.13;;
16460;SDS011;8341;42.048;24.650;2022-08-19T00:05:07;7.05;;;5.05;;
16460;SDS011;8341;42.048;24.650;2022-08-19T00:07:34;5.93;;;5.25;;
16460;SDS011;8341;42.048;24.650;2022-08-19T00:10:02;5.40;;;5.00;;
16460;SDS011;8341;42.048;24.650;2022-08-19T00:12:29;7.13;;;5.10;;
16460;SDS011;8341;42.048;24.650;2022-08-19T00:14:56;5.82;;;5.28;;
16460;SDS011;8341;42.048;24.650;2022-08-19T00:17:24;5.45;;;5.00;;
16460;SDS011;8341;42.048;24.650;2022-08-19T00:19:51;5.30;;;4.85;;
16460;SDS011;8341;42.048;24.650;2022-08-19T00:22:18;5.43;;;4.95;;
16460;SDS011;8341;42.048;24.650;2022-08-19T00:24:45;5.50;;;5.05;;
16460;SDS011;8341;42.048;24.650;2022-08-19T00:27:12;5.38;;;4.88;;
16460;SDS011;8341;42.048;24.650;2022-08-19T00:29:39;5.10;;;4.70;;
16460;SDS011;8341;42.048;24.650;2022-08-19T00:32:06;5.32;;;4.82;;
16460;SDS011;8341;42.048;24.650;2022-08-19T00:34:34;5.93;;;5.32;;
16460;SDS011;8341;42.048;24.650;2022-08-19T00:37:01;5.15;;;4.75;;
16460;SDS011;8341;42.048;24.650;2022-08-19T00:39:27;5.25;;;4.85;;
16460;SDS011;8341;42.048;24.650;2022-08-19T00:41:55;6.07;;;5.00;;
16460;SDS011;8341;42.048;24.650;2022-08-19T00:44:24;5.70;;;4.65;;
16460;SDS011;8341;42.048;24.650;2022-08-19T00:46:52;5.28;;;4.88;;
16460;SDS011;8341;42.048;24.650;2022-08-19T00:49:22;5.45;;;5.05;;
16460;SDS011;8341;42.048;24.650;2022-08-19T00:51:56;5.70;;;5.20;;
16460;SDS011;8341;42.048;24.650;2022-08-19T00:54:26;6.80;;;5.13;;
16460;SDS011;8341;42.048;24.650;2022-08-19T00:56:56;5.97;;;4.95;;
16460;SDS011;8341;42.048;24.650;2022-08-19T00:59:24;5.38;;;4.97;;
16460;SDS011;8341;42.048;24.650;2022-08-19T01:01:51;5.88;;;4.80;;
16460;SDS011;8341;42.048;24.650;2022-08-19T01:04:18;5.53;;;5.05;;
16460;SDS011;8341;42.048;24.650;2022-08-19T01:06:45;4.70;;;4.40;;
16460;SDS011;8341;42.048;24.650;2022-08-19T01:09:13;5.50;;;4.97;;
16460;SDS011;8341;42.048;24.650;2022-08-19T01:11:41;6.75;;;4.93;;
16460;SDS011;8341;42.048;24.650;2022-08-19T01:14:10;5.07;;;4.75;;
16460;SDS011;8341;42.048;24.650;2022-08-19T01:16:38;6.53;;;5.03;;
16460;SDS011;8341;42.048;24.650;2022-08-19T01:19:09;7.55;;;5.03;;
16460;SDS011;8341;42.048;24.650;2022-08-19T01:21:46;5.35;;;4.95;;
16460;SDS011;8341;42.048;24.650;2022-08-19T01:24:19;5.63;;;5.03;;
16460;SDS011;8341;42.048;24.650;2022-08-19T01:26:46;5.50;;;5.10;;
16460;SDS011;8341;42.048;24.650;2022-08-19T01:29:14;6.00;;;5.40;;
16460;SDS011;8341;42.048;24.650;2022-08-19T01:31:41;5.60;;;5.07;;
16460;SDS011;8341;42.048;24.650;2022-08-19T01:34:08;5.90;;;5.25;;
16460;SDS011;8341;42.048;24.650;2022-08-19T01:36:36;5.53;;;5.13;;
16460;SDS011;8341;42.048;24.650;2022-08-19T01:39:11;5.53;;;5.03;;
16460;SDS011;8341;42.048;24.650;2022-08-19T01:41:40;5.88;;;5.32;;
16460;SDS011;8341;42.048;24.650;2022-08-19T01:44:09;8.07;;;5.65;;
16460;SDS011;8341;42.048;24.650;2022-08-19T01:46:37;5.60;;;5.20;;
16460;SDS011;8341;42.048;24.650;2022-08-19T01:49:04;5.65;;;5.25;;
16460;SDS011;8341;42.048;24.650;2022-08-19T01:51:32;6.05;;;5.43;;
16460;SDS011;8341;42.048;24.650;2022-08-19T01:53:59;6.15;;;5.50;;
16460;SDS011;8341;42.048;24.650;2022-08-19T01:56:26;5.90;;;5.30;;
16460;SDS011;8341;42.048;24.650;2022-08-19T01:58:55;5.50;;;5.00;;
16460;SDS011;8341;42.048;24.650;2022-08-19T02:01:26;6.35;;;5.50;;
16460;SDS011;8341;42.048;24.650;2022-08-19T02:03:56;5.80;;;5.32;;
16460;SDS011;8341;42.048;24.650;2022-08-19T02:06:23;5.80;;;5.20;;
16460;SDS011;8341;42.048;24.650;2022-08-19T02:08:50;6.25;;;5.10;;
16460;SDS011;8341;42.048;24.650;2022-08-19T02:11:18;5.60;;;5.00;;
16460;SDS011;8341;42.048;24.650;2022-08-19T02:13:47;6.05;;;5.45;;
16460;SDS011;8341;42.048;24.650;2022-08-19T02:16:16;6.13;;;5.35;;
16460;SDS011;8341;42.048;24.650;2022-08-19T02:18:44;5.55;;;5.05;;
16460;SDS011;8341;42.048;24.650;2022-08-19T02:21:12;5.72;;;5.18;;
16460;SDS011;8341;42.048;24.650;2022-08-19T02:23:40;5.68;;;5.18;;
16460;SDS011;8341;42.048;24.650;2022-08-19T02:26:07;6.22;;;5.53;;
16460;SDS011;8341;42.048;24.650;2022-08-19T02:28:35;5.93;;;5.40;;
16460;SDS011;8341;42.048;24.650;2022-08-19T02:31:02;6.13;;;5.63;;
16460;SDS011;8341;42.048;24.650;2022-08-19T02:33:31;5.75;;;5.25;;
16460;SDS011;8341;42.048;24.650;2022-08-19T02:35:57;6.13;;;5.53;;
16460;SDS011;8341;42.048;24.650;2022-08-19T02:38:24;6.05;;;5.50;;
16460;SDS011;8341;42.048;24.650;2022-08-19T02:40:50;6.15;;;5.65;;
16460;SDS011;8341;42.048;24.650;2022-08-19T02:43:19;6.05;;;5.55;;
16460;SDS011;8341;42.048;24.650;2022-08-19T02:45:47;6.30;;;5.60;;
16460;SDS011;8341;42.048;24.650;2022-08-19T02:48:14;6.65;;;5.95;;
16460;SDS011;8341;42.048;24.650;2022-08-19T02:50:43;7.03;;;6.13;;
16460;SDS011;8341;42.048;24.650;2022-08-19T02:53:10;6.90;;;6.10;;
16460;SDS011;8341;42.048;24.650;2022-08-19T02:55:41;7.15;;;6.07;;
16460;SDS011;8341;42.048;24.650;2022-08-19T02:58:09;6.55;;;6.05;;
16460;SDS011;8341;42.048;24.650;2022-08-19T03:00:40;6.28;;;5.78;;
16460;SDS011;8341;42.048;24.650;2022-08-19T03:03:08;6.13;;;5.72;;
16460;SDS011;8341;42.048;24.650;2022-08-19T03:05:35;6.13;;;5.65;;
16460;SDS011;8341;42.048;24.650;2022-08-19T03:08:04;6.20;;;5.63;;
16460;SDS011;8341;42.048;24.650;2022-08-19T03:10:31;7.05;;;5.78;;
16460;SDS011;8341;42.048;24.650;2022-08-19T03:12:58;5.90;;;5.40;;
16460;SDS011;8341;42.048;24.650;2022-08-19T03:15:25;8.05;;;5.50;;
16460;SDS011;8341;42.048;24.650;2022-08-19T03:17:52;6.43;;;5.78;;
16460;SDS011;8341;42.048;24.650;2022-08-19T03:20:19;7.13;;;5.45;;
16460;SDS011;8341;42.048;24.650;2022-08-19T03:22:46;6.30;;;5.72;;
16460;SDS011;8341;42.048;24.650;2022-08-19T03:25:14;6.15;;;5.55;;
16460;SDS011;8341;42.048;24.650;2022-08-19T03:27:41;6.43;;;5.90;;
16460;SDS011;8341;42.048;24.650;2022-08-19T03:30:09;6.30;;;5.80;;
16460;SDS011;8341;42.048;24.650;2022-08-19T03:32:36;6.88;;;5.80;;
16460;SDS011;8341;42.048;24.650;2022-08-19T03:35:03;6.57;;;5.43;;
16460;SDS011;8341;42.048;24.650;2022-08-19T03:37:31;6.20;;;5.70;;
16460;SDS011;8341;42.048;24.650;2022-08-19T03:39:58;6.63;;;6.00;;
16460;SDS011;8341;42.048;24.650;2022-08-19T03:42:26;6.60;;;5.88;;
16460;SDS011;8341;42.048;24.650;2022-08-19T03:44:53;6.05;;;5.55;;
16460;SDS011;8341;42.048;24.650;2022-08-19T03:47:20;5.90;;;5.43;;
16460;SDS011;8341;42.048;24.650;2022-08-19T03:49:47;6.70;;;6.00;;
16460;SDS011;8341;42.048;24.650;2022-08-19T03:52:14;6.65;;;6.03;;
16460;SDS011;8341;42.048;24.650;2022-08-19T03:54:40;11.75;;;6.57;;
16460;SDS011;8341;42.048;24.650;2022-08-19T03:57:08;7.10;;;6.35;;
16460;SDS011;8341;42.048;24.650;2022-08-19T03:59:37;7.05;;;6.35;;
16460;SDS011;8341;42.048;24.650;2022-08-19T04:02:06;8.63;;;6.22;;
16460;SDS011;8341;42.048;24.650;2022-08-19T04:04:34;7.47;;;6.78;;
16460;SDS011;8341;42.048;24.650;2022-08-19T04:07:02;9.25;;;8.35;;
16460;SDS011;8341;42.048;24.650;2022-08-19T04:09:29;10.50;;;8.50;;
16460;SDS011;8341;42.048;24.650;2022-08-19T04:11:56;8.88;;;7.20;;
16460;SDS011;8341;42.048;24.650;2022-08-19T04:14:25;8.57;;;7.68;;
16460;SDS011;8341;42.048;24.650;2022-08-19T04:16:56;10.32;;;7.20;;
16460;SDS011;8341;42.048;24.650;2022-08-19T04:19:24;10.75;;;6.80;;
16460;SDS011;8341;42.048;24.650;2022-08-19T04:21:53;13.93;;;7.05;;
16460;SDS011;8341;42.048;24.650;2022-08-19T04:24:21;7.60;;;6.40;;
16460;SDS011;8341;42.048;24.650;2022-08-19T04:26:49;8.52;;;6.20;;
16460;SDS011;8341;42.048;24.650;2022-08-19T04:29:17;11.85;;;6.72;;
16460;SDS011;8341;42.048;24.650;2022-08-19T04:31:47;9.48;;;6.55;;
16460;SDS011;8341;42.048;24.650;2022-08-19T04:34:16;9.23;;;6.20;;
16460;SDS011;8341;42.048;24.650;2022-08-19T04:36:47;7.70;;;6.32;;
16460;SDS011;8341;42.048;24.650;2022-08-19T04:39:17;6.88;;;6.32;;
16460;SDS011;8341;42.048;24.650;2022-08-19T04:41:45;7.25;;;6.43;;
16460;SDS011;8341;42.048;24.650;2022-08-19T04:44:30;6.90;;;6.30;;
16460;SDS011;8341;42.048;24.650;2022-08-19T04:46:57;7.82;;;6.93;;
16460;SDS011;8341;42.048;24.650;2022-08-19T04:49:25;7.20;;;6.50;;
16460;SDS011;8341;42.048;24.650;2022-08-19T04:51:53;6.85;;;6.25;;
16460;SDS011;8341;42.048;24.650;2022-08-19T04:54:21;7.75;;;6.68;;
16460;SDS011;8341;42.048;24.650;2022-08-19T04:56:50;13.38;;;6.82;;
16460;SDS011;8341;42.048;24.650;2022-08-19T04:59:18;10.15;;;9.15;;
16460;SDS011;8341;42.048;24.650;2022-08-19T05:01:46;13.35;;;12.07;;
16460;SDS011;8341;42.048;24.650;2022-08-19T05:04:15;10.75;;;9.63;;
16460;SDS011;8341;42.048;24.650;2022-08-19T05:06:45;10.40;;;9.40;;
16460;SDS011;8341;42.048;24.650;2022-08-19T05:09:13;10.60;;;9.13;;
16460;SDS011;8341;42.048;24.650;2022-08-19T05:11:40;10.38;;;9.38;;
16460;SDS011;8341;42.048;24.650;2022-08-19T05:14:07;10.68;;;9.73;;
16460;SDS011;8341;42.048;24.650;2022-08-19T05:16:35;8.52;;;7.72;;
16460;SDS011;8341;42.048;24.650;2022-08-19T05:19:02;7.18;;;6.65;;
16460;SDS011;8341;42.048;24.650;2022-08-19T05:21:47;8.20;;;7.40;;
16460;SDS011;8341;42.048;24.650;2022-08-19T05:24:31;6.78;;;6.18;;
16460;SDS011;8341;42.048;24.650;2022-08-19T05:26:59;9.02;;;8.10;;
16460;SDS011;8341;42.048;24.650;2022-08-19T05:29:28;9.32;;;8.23;;
16460;SDS011;8341;42.048;24.650;2022-08-19T05:31:56;13.55;;;11.80;;
16460;SDS011;8341;42.048;24.650;2022-08-19T05:34:24;9.90;;;8.95;;
16460;SDS011;8341;42.048;24.650;2022-08-19T05:36:54;10.65;;;9.65;;
16460;SDS011;8341;42.048;24.650;2022-08-19T05:39:24;7.72;;;7.07;;
16460;SDS011;8341;42.048;24.650;2022-08-19T05:41:53;10.68;;;9.55;;
16460;SDS011;8341;42.048;24.650;2022-08-19T05:44:23;9.73;;;8.82;;
16460;SDS011;8341;42.048;24.650;2022-08-19T05:46:50;11.18;;;10.18;;
16460;SDS011;8341;42.048;24.650;2022-08-19T05:49:19;7.35;;;6.75;;
16460;SDS011;8341;42.048;24.650;2022-08-19T05:51:47;11.38;;;10.20;;
16460;SDS011;8341;42.048;24.650;2022-08-19T05:54:16;14.85;;;13.50;;
16460;SDS011;8341;42.048;24.650;2022-08-19T05:56:44;21.10;;;17.73;;
16460;SDS011;8341;42.048;24.650;2022-08-19T05:59:13;8.60;;;7.88;;
16460;SDS011;8341;42.048;24.650;2022-08-19T06:01:42;10.23;;;9.18;;
16460;SDS011;8341;42.048;24.650;2022-08-19T06:04:10;14.68;;;13.18;;
16460;SDS011;8341;42.048;24.650;2022-08-19T06:06:38;9.52;;;8.52;;
16460;SDS011;8341;42.048;24.650;2022-08-19T06:09:06;9.90;;;7.65;;
16460;SDS011;8341;42.048;24.650;2022-08-19T06:11:37;8.90;;;6.55;;
16460;SDS011;8341;42.048;24.650;2022-08-19T06:14:08;8.75;;;7.28;;
16460;SDS011;8341;42.048;24.650;2022-08-19T06:16:37;6.40;;;5.80;;
16460;SDS011;8341;42.048;24.650;2022-08-19T06:19:05;7.07;;;6.03;;
16460;SDS011;8341;42.048;24.650;2022-08-19T06:21:34;7.55;;;6.88;;
16460;SDS011;8341;42.048;24.650;2022-08-19T06:24:03;8.00;;;7.30;;
16460;SDS011;8341;42.048;24.650;2022-08-19T06:26:32;7.95;;;7.25;;
16460;SDS011;8341;42.048;24.650;2022-08-19T06:29:01;7.03;;;6.40;;
16460;SDS011;8341;42.048;24.650;2022-08-19T06:31:28;9.38;;;7.07;;
16460;SDS011;8341;42.048;24.650;2022-08-19T06:33:58;11.35;;;8.23;;
16460;SDS011;8341;42.048;24.650;2022-08-19T06:36:29;8.63;;;7.78;;
16460;SDS011;8341;42.048;24.650;2022-08-19T06:38:59;9.10;;;7.93;;
16460;SDS011;8341;42.048;24.650;2022-08-19T06:41:27;9.65;;;7.65;;
16460;SDS011;8341;42.048;24.650;2022-08-19T06:43:55;9.23;;;7.90;;
16460;SDS011;8341;42.048;24.650;2022-08-19T06:46:25;10.43;;;8.75;;
16460;SDS011;8341;42.048;24.650;2022-08-19T06:48:53;8.70;;;7.82;;
16460;SDS011;8341;42.048;24.650;2022-08-19T06:51:20;11.40;;;8.30;;
16460;SDS011;8341;42.048;24.650;2022-08-19T06:53:49;9.65;;;7.90;;
16460;SDS011;8341;42.048;24.650;2022-08-19T06:56:21;17.75;;;8.68;;
16460;SDS011;8341;42.048;24.650;2022-08-19T06:58:49;11.02;;;8.50;;
16460;SDS011;8341;42.048;24.650;2022-08-19T07:01:17;10.85;;;7.63;;
16460;SDS011;8341;42.048;24.650;2022-08-19T07:03:46;9.73;;;8.25;;
16460;SDS011;8341;42.048;24.650;2022-08-19T07:06:14;10.32;;;8.07;;
16460;SDS011;8341;42.048;24.650;2022-08-19T07:08:43;10.30;;;8.20;;
16460;SDS011;8341;42.048;24.650;2022-08-19T07:11:12;10.70;;;8.48;;
16460;SDS011;8341;42.048;24.650;2022-08-19T07:13:41;13.38;;;8.68;;
16460;SDS011;8341;42.048;24.650;2022-08-19T07:16:09;11.80;;;8.77;;
16460;SDS011;8341;42.048;24.650;2022-08-19T07:18:38;12.40;;;8.70;;
16460;SDS011;8341;42.048;24.650;2022-08-19T07:21:07;9.40;;;8.40;;
16460;SDS011;8341;42.048;24.650;2022-08-19T07:23:36;11.90;;;8.57;;
16460;SDS011;8341;42.048;24.650;2022-08-19T07:26:04;11.10;;;8.45;;
16460;SDS011;8341;42.048;24.650;2022-08-19T07:28:32;7.50;;;6.75;;
16460;SDS011;8341;42.048;24.650;2022-08-19T07:30:59;8.57;;;7.72;;
16460;SDS011;8341;42.048;24.650;2022-08-19T07:33:28;7.45;;;6.85;;
16460;SDS011;8341;42.048;24.650;2022-08-19T07:35:57;8.95;;;7.57;;
16460;SDS011;8341;42.048;24.650;2022-08-19T07:38:25;7.55;;;6.78;;
16460;SDS011;8341;42.048;24.650;2022-08-19T07:40:52;8.55;;;7.00;;
16460;SDS011;8341;42.048;24.650;2022-08-19T07:43:19;7.72;;;6.55;;
16460;SDS011;8341;42.048;24.650;2022-08-19T07:45:50;9.23;;;6.72;;
16460;SDS011;8341;42.048;24.650;2022-08-19T07:48:17;7.22;;;6.50;;
16460;SDS011;8341;42.048;24.650;2022-08-19T07:50:44;7.95;;;6.60;;
16460;SDS011;8341;42.048;24.650;2022-08-19T07:53:10;6.90;;;6.35;;
16460;SDS011;8341;42.048;24.650;2022-08-19T07:55:39;6.40;;;5.90;;
16460;SDS011;8341;42.048;24.650;2022-08-19T07:58:06;7.72;;;6.18;;
16460;SDS011;8341;42.048;24.650;2022-08-19T08:00:33;10.05;;;6.20;;
16460;SDS011;8341;42.048;24.650;2022-08-19T08:03:00;6.60;;;5.90;;
16460;SDS011;8341;42.048;24.650;2022-08-19T08:05:27;8.45;;;6.43;;
16460;SDS011;8341;42.048;24.650;2022-08-19T08:08:11;6.07;;;5.57;;
16460;SDS011;8341;42.048;24.650;2022-08-19T08:11:02;6.60;;;5.60;;
16460;SDS011;8341;42.048;24.650;2022-08-19T08:13:29;5.90;;;5.40;;
16460;SDS011;8341;42.048;24.650;2022-08-19T08:15:57;6.38;;;5.88;;
16460;SDS011;8341;42.048;24.650;2022-08-19T08:18:24;6.20;;;5.70;;
16460;SDS011;8341;42.048;24.650;2022-08-19T08:20:52;6.18;;;5.68;;
16460;SDS011;8341;42.048;24.650;2022-08-19T08:23:18;6.13;;;5.50;;
16460;SDS011;8341;42.048;24.650;2022-08-19T08:25:49;5.75;;;5.20;;
16460;SDS011;8341;42.048;24.650;2022-08-19T08:28:18;6.43;;;5.82;;
16460;SDS011;8341;42.048;24.650;2022-08-19T08:30:45;7.25;;;5.25;;
16460;SDS011;8341;42.048;24.650;2022-08-19T08:33:13;5.72;;;5.22;;
16460;SDS011;8341;42.048;24.650;2022-08-19T08:35:43;5.97;;;5.47;;
16460;SDS011;8341;42.048;24.650;2022-08-19T08:38:10;5.95;;;5.30;;
16460;SDS011;8341;42.048;24.650;2022-08-19T08:40:39;6.20;;;5.60;;
16460;SDS011;8341;42.048;24.650;2022-08-19T08:43:13;5.53;;;5.05;;
16460;SDS011;8341;42.048;24.650;2022-08-19T08:45:49;5.68;;;5.10;;
16460;SDS011;8341;42.048;24.650;2022-08-19T08:48:22;5.25;;;4.85;;
16460;SDS011;8341;42.048;24.650;2022-08-19T08:50:56;5.90;;;5.18;;
16460;SDS011;8341;42.048;24.650;2022-08-19T08:53:25;5.57;;;5.10;;
16460;SDS011;8341;42.048;24.650;2022-08-19T08:55:52;8.55;;;5.13;;
16460;SDS011;8341;42.048;24.650;2022-08-19T08:58:28;5.60;;;5.07;;
16460;SDS011;8341;42.048;24.650;2022-08-19T09:00:59;6.03;;;5.45;;
16460;SDS011;8341;42.048;24.650;2022-08-19T09:03:26;8.20;;;5.47;;
16460;SDS011;8341;42.048;24.650;2022-08-19T09:05:59;5.88;;;5.38;;
16460;SDS011;8341;42.048;24.650;2022-08-19T09:08:40;8.15;;;5.18;;
16460;SDS011;8341;42.048;24.650;2022-08-19T09:11:19;4.55;;;4.25;;
16460;SDS011;8341;42.048;24.650;2022-08-19T09:14:02;5.40;;;5.00;;
16460;SDS011;8341;42.048;24.650;2022-08-19T09:16:35;5.80;;;4.88;;
16460;SDS011;8341;42.048;24.650;2022-08-19T09:19:06;4.93;;;4.60;;
16460;SDS011;8341;42.048;24.650;2022-08-19T09:21:34;5.40;;;4.90;;
16460;SDS011;8341;42.048;24.650;2022-08-19T09:24:01;5.45;;;4.97;;
16460;SDS011;8341;42.048;24.650;2022-08-19T09:26:29;4.57;;;4.28;;
16460;SDS011;8341;42.048;24.650;2022-08-19T09:28:57;6.13;;;4.50;;
16460;SDS011;8341;42.048;24.650;2022-08-19T09:31:28;5.80;;;5.28;;
16460;SDS011;8341;42.048;24.650;2022-08-19T09:33:57;7.40;;;4.80;;
16460;SDS011;8341;42.048;24.650;2022-08-19T09:36:29;6.95;;;4.90;;
16460;SDS011;8341;42.048;24.650;2022-08-19T09:38:58;5.40;;;4.90;;
16460;SDS011;8341;42.048;24.650;2022-08-19T09:41:26;4.78;;;4.38;;
16460;SDS011;8341;42.048;24.650;2022-08-19T09:43:53;5.07;;;4.72;;
16460;SDS011;8341;42.048;24.650;2022-08-19T09:46:24;5.47;;;4.72;;
16460;SDS011;8341;42.048;24.650;2022-08-19T09:48:54;4.95;;;4.57;;
16460;SDS011;8341;42.048;24.650;2022-08-19T09:51:24;5.13;;;4.72;;
16460;SDS011;8341;42.048;24.650;2022-08-19T09:53:53;5.25;;;4.95;;
16460;SDS011;8341;42.048;24.650;2022-08-19T09:56:22;5.10;;;4.60;;
16460;SDS011;8341;42.048;24.650;2022-08-19T09:58:49;6.97;;;4.72;;
16460;SDS011;8341;42.048;24.650;2022-08-19T10:01:17;6.60;;;4.75;;
16460;SDS011;8341;42.048;24.650;2022-08-19T10:03:46;5.40;;;4.90;;
16460;SDS011;8341;42.048;24.650;2022-08-19T10:06:16;6.68;;;5.18;;
16460;SDS011;8341;42.048;24.650;2022-08-19T10:08:43;4.72;;;4.43;;
16460;SDS011;8341;42.048;24.650;2022-08-19T10:11:10;5.18;;;4.65;;
16460;SDS011;8341;42.048;24.650;2022-08-19T10:13:39;5.78;;;5.10;;
16460;SDS011;8341;42.048;24.650;2022-08-19T10:16:07;5.70;;;5.20;;
16460;SDS011;8341;42.048;24.650;2022-08-19T10:18:35;6.03;;;5.50;;
16460;SDS011;8341;42.048;24.650;2022-08-19T10:21:04;6.57;;;5.25;;
16460;SDS011;8341;42.048;24.650;2022-08-19T10:23:36;5.45;;;5.05;;
16460;SDS011;8341;42.048;24.650;2022-08-19T10:26:04;5.13;;;4.68;;
16460;SDS011;8341;42.048;24.650;2022-08-19T10:28:32;5.32;;;4.82;;
16460;SDS011;8341;42.048;24.650;2022-08-19T10:31:05;5.68;;;4.85;;
16460;SDS011;8341;42.048;24.650;2022-08-19T10:33:33;5.28;;;4.85;;
16460;SDS011;8341;42.048;24.650;2022-08-19T10:36:01;5.57;;;5.07;;
16460;SDS011;8341;42.048;24.650;2022-08-19T10:38:29;9.20;;;5.03;;
16460;SDS011;8341;42.048;24.650;2022-08-19T10:40:58;5.45;;;5.05;;
16460;SDS011;8341;42.048;24.650;2022-08-19T10:43:32;6.22;;;5.20;;
16460;SDS011;8341;42.048;24.650;2022-08-19T10:46:02;5.80;;;5.00;;
16460;SDS011;8341;42.048;24.650;2022-08-19T10:48:30;5.57;;;5.07;;
16460;SDS011;8341;42.048;24.650;2022-08-19T10:50:58;5.05;;;4.60;;
16460;SDS011;8341;42.048;24.650;2022-08-19T10:53:42;5.03;;;4.63;;
16460;SDS011;8341;42.048;24.650;2022-08-19T10:56:10;5.50;;;4.90;;
16460;SDS011;8341;42.048;24.650;2022-08-19T10:58:55;5.70;;;4.68;;
16460;SDS011;8341;42.048;24.650;2022-08-19T11:01:23;4.55;;;4.13;;
16460;SDS011;8341;42.048;24.650;2022-08-19T11:03:49;5.80;;;4.50;;
16460;SDS011;8341;42.048;24.650;2022-08-19T11:06:17;5.07;;;4.30;;
16460;SDS011;8341;42.048;24.650;2022-08-19T11:08:45;5.53;;;4.35;;
16460;SDS011;8341;42.048;24.650;2022-08-19T11:11:13;7.32;;;4.32;;
16460;SDS011;8341;42.048;24.650;2022-08-19T11:13:40;4.75;;;4.38;;
16460;SDS011;8341;42.048;24.650;2022-08-19T11:16:11;5.10;;;4.57;;
16460;SDS011;8341;42.048;24.650;2022-08-19T11:18:42;4.82;;;4.38;;
16460;SDS011;8341;42.048;24.650;2022-08-19T11:21:12;5.40;;;4.35;;
16460;SDS011;8341;42.048;24.650;2022-08-19T11:23:42;4.97;;;4.38;;
16460;SDS011;8341;42.048;24.650;2022-08-19T11:26:09;5.55;;;4.68;;
16460;SDS011;8341;42.048;24.650;2022-08-19T11:28:38;5.05;;;4.65;;
16460;SDS011;8341;42.048;24.650;2022-08-19T11:31:09;6.10;;;4.60;;
16460;SDS011;8341;42.048;24.650;2022-08-19T11:33:36;7.95;;;4.45;;
16460;SDS011;8341;42.048;24.650;2022-08-19T11:36:03;5.28;;;4.15;;
16460;SDS011;8341;42.048;24.650;2022-08-19T11:38:30;5.50;;;4.60;;
16460;SDS011;8341;42.048;24.650;2022-08-19T11:40:57;6.18;;;5.15;;
16460;SDS011;8341;42.048;24.650;2022-08-19T11:43:26;5.10;;;4.70;;
16460;SDS011;8341;42.048;24.650;2022-08-19T11:45:55;4.70;;;4.30;;
16460;SDS011;8341;42.048;24.650;2022-08-19T11:48:22;4.95;;;4.55;;
16460;SDS011;8341;42.048;24.650;2022-08-19T11:50:49;4.63;;;4.32;;
16460;SDS011;8341;42.048;24.650;2022-08-19T11:53:16;6.03;;;4.60;;
16460;SDS011;8341;42.048;24.650;2022-08-19T11:55:45;4.95;;;4.55;;
16460;SDS011;8341;42.048;24.650;2022-08-19T11:58:13;4.97;;;4.57;;
16460;SDS011;8341;42.048;24.650;2022-08-19T12:00:41;4.70;;;3.90;;
16460;SDS011;8341;42.048;24.650;2022-08-19T12:03:11;4.55;;;4.15;;
16460;SDS011;8341;42.048;24.650;2022-08-19T12:05:39;4.60;;;4.20;;
16460;SDS011;8341;42.048;24.650;2022-08-19T12:08:07;4.68;;;4.28;;
16460;SDS011;8341;42.048;24.650;2022-08-19T12:10:35;4.45;;;4.05;;
16460;SDS011;8341;42.048;24.650;2022-08-19T12:13:02;4.07;;;3.78;;
16460;SDS011;8341;42.048;24.650;2022-08-19T12:15:29;4.78;;;4.40;;
16460;SDS011;8341;42.048;24.650;2022-08-19T12:17:56;4.70;;;4.30;;
16460;SDS011;8341;42.048;24.650;2022-08-19T12:20:24;4.50;;;4.10;;
16460;SDS011;8341;42.048;24.650;2022-08-19T12:22:51;4.53;;;4.22;;
16460;SDS011;8341;42.048;24.650;2022-08-19T12:25:18;5.60;;;4.95;;
16460;SDS011;8341;42.048;24.650;2022-08-19T12:27:45;6.65;;;4.80;;
16460;SDS011;8341;42.048;24.650;2022-08-19T12:30:14;5.18;;;4.63;;
16460;SDS011;8341;42.048;24.650;2022-08-19T12:32:40;5.35;;;4.70;;
16460;SDS011;8341;42.048;24.650;2022-08-19T12:35:08;7.43;;;4.95;;
16460;SDS011;8341;42.048;24.650;2022-08-19T12:37:38;5.25;;;4.85;;
16460;SDS011;8341;42.048;24.650;2022-08-19T12:40:07;5.20;;;4.70;;
16460;SDS011;8341;42.048;24.650;2022-08-19T12:42:36;4.88;;;4.35;;
16460;SDS011;8341;42.048;24.650;2022-08-19T12:45:07;5.65;;;5.22;;
16460;SDS011;8341;42.048;24.650;2022-08-19T12:47:35;5.55;;;4.68;;
16460;SDS011;8341;42.048;24.650;2022-08-19T12:50:02;5.68;;;4.85;;
16460;SDS011;8341;42.048;24.650;2022-08-19T12:52:29;5.57;;;5.03;;
16460;SDS011;8341;42.048;24.650;2022-08-19T12:54:57;6.72;;;5.35;;
16460;SDS011;8341;42.048;24.650;2022-08-19T12:57:25;5.53;;;5.10;;
16460;SDS011;8341;42.048;24.650;2022-08-19T12:59:58;5.68;;;5.03;;
16460;SDS011;8341;42.048;24.650;2022-08-19T13:02:25;7.47;;;5.10;;
16460;SDS011;8341;42.048;24.650;2022-08-19T13:04:52;5.15;;;4.75;;
16460;SDS011;8341;42.048;24.650;2022-08-19T13:07:18;6.95;;;4.88;;
16460;SDS011;8341;42.048;24.650;2022-08-19T13:09:46;6.15;;;5.30;;
16460;SDS011;8341;42.048;24.650;2022-08-19T13:12:14;5.90;;;5.40;;
16460;SDS011;8341;42.048;24.650;2022-08-19T13:14:42;6.00;;;5.40;;
16460;SDS011;8341;42.048;24.650;2022-08-19T13:17:11;6.10;;;5.20;;
16460;SDS011;8341;42.048;24.650;2022-08-19T13:19:39;6.32;;;5.63;;
16460;SDS011;8341;42.048;24.650;2022-08-19T13:22:06;6.35;;;5.78;;
16460;SDS011;8341;42.048;24.650;2022-08-19T13:24:33;6.40;;;5.30;;
16460;SDS011;8341;42.048;24.650;2022-08-19T13:27:01;7.93;;;5.35;;
16460;SDS011;8341;42.048;24.650;2022-08-19T13:29:30;5.68;;;5.15;;
16460;SDS011;8341;42.048;24.650;2022-08-19T13:32:14;6.55;;;5.40;;
16460;SDS011;8341;42.048;24.650;2022-08-19T13:34:58;5.93;;;5.40;;
16460;SDS011;8341;42.048;24.650;2022-08-19T13:37:25;7.65;;;5.30;;
16460;SDS011;8341;42.048;24.650;2022-08-19T13:40:06;9.80;;;6.15;;
16460;SDS011;8341;42.048;24.650;2022-08-19T13:42:36;5.90;;;5.50;;
16460;SDS011;8341;42.048;24.650;2022-08-19T13:45:05;5.75;;;5.22;;
16460;SDS011;8341;42.048;24.650;2022-08-19T13:47:33;6.10;;;5.60;;
16460;SDS011;8341;42.048;24.650;2022-08-19T13:50:02;5.93;;;5.22;;
16460;SDS011;8341;42.048;24.650;2022-08-19T13:52:29;7.22;;;6.40;;
16460;SDS011;8341;42.048;24.650;2022-08-19T13:54:55;7.82;;;5.65;;
16460;SDS011;8341;42.048;24.650;2022-08-19T13:57:23;5.93;;;5.32;;
16460;SDS011;8341;42.048;24.650;2022-08-19T13:59:49;5.93;;;5.38;;
16460;SDS011;8341;42.048;24.650;2022-08-19T14:02:17;6.00;;;5.55;;
16460;SDS011;8341;42.048;24.650;2022-08-19T14:04:44;6.05;;;5.45;;
16460;SDS011;8341;42.048;24.650;2022-08-19T14:07:11;8.48;;;5.53;;
16460;SDS011;8341;42.048;24.650;2022-08-19T14:09:39;5.97;;;5.47;;
16460;SDS011;8341;42.048;24.650;2022-08-19T14:12:06;6.60;;;6.00;;
16460;SDS011;8341;42.048;24.650;2022-08-19T14:14:35;6.35;;;5.70;;
16460;SDS011;8341;42.048;24.650;2022-08-19T14:17:05;6.72;;;6.13;;
16460;SDS011;8341;42.048;24.650;2022-08-19T14:19:33;7.55;;;5.75;;
16460;SDS011;8341;42.048;24.650;2022-08-19T14:22:00;6.45;;;5.93;;
16460;SDS011;8341;42.048;24.650;2022-08-19T14:24:27;8.75;;;5.75;;
16460;SDS011;8341;42.048;24.650;2022-08-19T14:26:54;6.15;;;5.57;;
16460;SDS011;8341;42.048;24.650;2022-08-19T14:29:21;5.75;;;5.35;;
16460;SDS011;8341;42.048;24.650;2022-08-19T14:31:48;5.95;;;5.47;;
16460;SDS011;8341;42.048;24.650;2022-08-19T14:34:15;5.78;;;5.30;;
16460;SDS011;8341;42.048;24.650;2022-08-19T14:36:43;6.72;;;5.55;;
16460;SDS011;8341;42.048;24.650;2022-08-19T14:39:10;5.43;;;5.00;;
16460;SDS011;8341;42.048;24.650;2022-08-19T14:41:39;5.70;;;5.30;;
16460;SDS011;8341;42.048;24.650;2022-08-19T14:44:06;6.10;;;5.60;;
16460;SDS011;8341;42.048;24.650;2022-08-19T14:46:35;6.20;;;5.70;;
16460;SDS011;8341;42.048;24.650;2022-08-19T14:49:01;5.93;;;5.50;;
16460;SDS011;8341;42.048;24.650;2022-08-19T14:51:28;7.32;;;6.10;;
16460;SDS011;8341;42.048;24.650;2022-08-19T14:53:56;5.90;;;5.30;;